Hillview, Illinois
Current Conditions -  °F | °C
As of 8:35 AM on Monday 22 Dec 2014 (Local Time) from KPPQ Reporting Station
Moderate Rain Moderate Rain  
Wind Chill: 32°   Ceiling: 400
Heat Index: 39°   Visibility: 2.5mi
Dew Point: 37°   Wind: 9mph
Humidity: 94%   Direction: 120°ESE
Pressure: 29.73"   Gusts: NA
Location:  39.45°N, 90.54°W
Report Text: KPPQ 221435Z AUTO 12008KT 2 1/2SM RA BKN004 OVC008 04/03 A2973 RMK AO2 P0006 T00370028
Loading
Personal Weather Stations






























Interactive Weather Map New forecast layout! Learn more

10-Day Weather Forecast

Advertisements
Track Severe Weather on mobile